Time;durP1;ratioP1;P1;durP2;ratioP2;P2;SDS_P1;SDS_P2;PMS_P1;PMS_P2;Temp;Humidity;BMP_temperature;BMP_pressure;BME280_temperature;BME280_humidity;BME280_pressure;Samples;Min_cycle;Max_cycle;Signal;HPM_P1;HPM_P2
2022/05/30 00:01:08;;;;;;;2.90;2.58;;;8.60;3.10;;;;;;7364865;19;20083;-61
2022/05/30 00:03:41;;;;;;;4.80;2.75;;;8.60;2.20;;;;;;7363789;19;20019;-61
2022/05/30 00:06:13;;;;;;;3.55;2.88;;;8.60;1.80;;;;;;7370388;19;20014;-60
2022/05/30 00:08:43;;;;;;;4.35;2.60;;;8.40;2.50;;;;;;7386661;19;20013;-60
2022/05/30 00:11:15;;;;;;;4.30;3.47;;;8.30;3.70;;;;;;7362059;19;20010;-61
2022/05/30 00:13:45;;;;;;;3.90;3.00;;;8.30;4.10;;;;;;7362177;19;20452;-61
2022/05/30 00:16:20;;;;;;;4.60;3.40;;;8.30;5.20;;;;;;7365850;19;20462;-61
2022/05/30 00:18:53;;;;;;;8.13;3.15;;;8.40;4.30;;;;;;7364574;19;20006;-62
2022/05/30 00:21:25;;;;;;;5.97;3.60;;;8.40;6.00;;;;;;7363911;19;20445;-61
2022/05/30 00:23:56;;;;;;;4.78;3.40;;;8.10;5.50;;;;;;7383243;19;20007;-61
2022/05/30 00:26:26;;;;;;;4.72;3.30;;;8.20;7.30;;;;;;7365569;19;20006;-61
2022/05/30 00:28:56;;;;;;;4.95;3.38;;;8.30;6.80;;;;;;7363868;19;20018;-60
2022/05/30 00:31:26;;;;;;;5.75;3.83;;;8.20;6.30;;;;;;7363965;19;20009;-60
2022/05/30 00:33:59;;;;;;;4.82;3.33;;;8.10;7.60;;;;;;7360318;19;20010;-61
2022/05/30 00:36:29;;;;;;;4.57;3.67;;;8.10;7.90;;;;;;7365337;19;20033;-61
2022/05/30 00:38:58;;;;;;;4.88;3.67;;;8.00;7.20;;;;;;7385688;19;20086;-62
2022/05/30 00:41:28;;;;;;;5.03;3.90;;;8.10;8.50;;;;;;7362708;19;20005;-63
2022/05/30 00:43:58;;;;;;;6.05;3.53;;;8.10;8.20;;;;;;7360862;19;20025;-61
2022/05/30 00:46:28;;;;;;;5.05;3.47;;;8.00;8.00;;;;;;7365700;19;20013;-61
2022/05/30 00:49:05;;;;;;;4.25;3.72;;;7.90;9.50;;;;;;7362449;19;20514;-61
2022/05/30 00:51:40;;;;;;;5.03;3.20;;;7.90;9.90;;;;;;7364257;19;20031;-60
2022/05/30 00:54:14;;;;;;;5.88;3.65;;;7.80;10.70;;;;;;7377339;19;20021;-62
2022/05/30 00:56:50;;;;;;;6.75;3.60;;;7.80;11.50;;;;;;7386917;19;20038;-61
2022/05/30 00:59:21;;;;;;;5.63;3.47;;;7.80;10.90;;;;;;7362301;19;20025;-60
2022/05/30 01:01:51;;;;;;;5.00;3.22;;;7.80;11.60;;;;;;7361397;19;20029;-60
2022/05/30 01:07:08;;;;;;;5.13;3.25;;;7.70;11.20;;;;;;7363255;19;20525;-61
2022/05/30 01:09:41;;;;;;;6.80;3.05;;;7.70;11.80;;;;;;7362162;19;20015;-61
2022/05/30 01:12:13;;;;;;;5.93;3.50;;;7.80;11.80;;;;;;7362711;19;20027;-61
2022/05/30 01:14:48;;;;;;;4.40;3.20;;;7.70;12.20;;;;;;7385270;19;20458;-63
2022/05/30 01:17:20;;;;;;;4.25;3.28;;;7.70;12.20;;;;;;7364530;19;20029;-61
2022/05/30 01:19:57;;;;;;;4.63;3.20;;;7.70;11.40;;;;;;7362819;19;20023;-60
2022/05/30 01:22:52;;;;;;;5.40;3.25;;;7.70;11.50;;;;;;7359037;19;20021;-61
2022/05/30 01:25:46;;;;;;;4.20;3.30;;;7.70;11.60;;;;;;7364012;19;20003;-62
2022/05/30 01:28:41;;;;;;;5.25;3.40;;;7.60;12.10;;;;;;7360721;19;20025;-62
2022/05/30 01:31:11;;;;;;;5.55;3.95;;;7.60;12.40;;;;;;7362742;19;20006;-60
2022/05/30 01:33:41;;;;;;;9.00;5.63;;;7.60;12.40;;;;;;7358447;19;20795;-61
2022/05/30 01:36:11;;;;;;;14.13;9.02;;;7.50;13.20;;;;;;7369686;19;20350;-61
2022/05/30 01:38:41;;;;;;;9.25;5.90;;;7.40;13.20;;;;;;7382528;19;20014;-61
2022/05/30 01:41:11;;;;;;;9.55;5.93;;;7.40;14.60;;;;;;7361499;19;20470;-61
2022/05/30 01:43:44;;;;;;;6.97;4.78;;;7.30;14.70;;;;;;7359960;19;20085;-62
2022/05/30 01:46:18;;;;;;;6.90;4.50;;;7.20;15.10;;;;;;7365713;19;20006;-61
2022/05/30 01:48:48;;;;;;;5.10;4.10;;;7.30;15.80;;;;;;7369689;19;20018;-61
2022/05/30 01:51:20;;;;;;;5.45;4.10;;;7.10;15.90;;;;;;7368727;19;20006;-61
2022/05/30 01:53:50;;;;;;;5.95;4.28;;;7.20;17.00;;;;;;7389316;19;20015;-61
2022/05/30 01:56:21;;;;;;;6.38;4.18;;;7.10;17.40;;;;;;7369387;19;20482;-61
2022/05/30 01:58:54;;;;;;;5.75;4.60;;;7.10;17.50;;;;;;7368313;19;20597;-62
2022/05/30 02:01:26;;;;;;;6.22;4.60;;;7.00;17.40;;;;;;7368960;19;20015;-61
2022/05/30 02:03:57;;;;;;;9.30;4.63;;;6.90;18.00;;;;;;7366296;19;20389;-61
2022/05/30 02:06:28;;;;;;;7.95;4.57;;;6.80;18.30;;;;;;7369909;19;20082;-61
2022/05/30 02:08:59;;;;;;;9.52;5.10;;;6.80;20.70;;;;;;7390034;19;20019;-61
2022/05/30 02:11:29;;;;;;;8.48;4.90;;;6.70;21.60;;;;;;7368342;19;20006;-61
2022/05/30 02:14:02;;;;;;;7.22;5.63;;;6.60;23.20;;;;;;7366546;19;20006;-61
2022/05/30 02:19:16;;;;;;;9.05;6.00;;;6.50;25.60;;;;;;7367511;19;20025;-61
2022/05/30 02:21:46;;;;;;;8.02;5.75;;;6.50;25.70;;;;;;7367907;19;20014;-60
2022/05/30 02:24:17;;;;;;;6.82;6.13;;;6.60;26.30;;;;;;7367318;19;20014;-61
2022/05/30 02:26:47;;;;;;;8.30;6.13;;;6.60;26.10;;;;;;7390678;19;20038;-60
2022/05/30 02:29:20;;;;;;;8.75;6.68;;;6.40;27.30;;;;;;7367548;19;20537;-60
2022/05/30 02:31:50;;;;;;;9.60;6.35;;;6.40;27.30;;;;;;7367032;19;20013;-61
2022/05/30 02:37:02;;;;;;;9.85;5.88;;;6.50;27.40;;;;;;7368572;19;20077;-60
2022/05/30 02:39:33;;;;;;;6.20;5.60;;;6.40;25.90;;;;;;7367698;19;20035;-60
2022/05/30 02:42:04;;;;;;;8.38;5.80;;;6.40;27.30;;;;;;7386751;19;20090;-61
2022/05/30 02:44:37;;;;;;;10.35;6.53;;;6.40;27.30;;;;;;7368140;19;20485;-61
2022/05/30 02:47:07;;;;;;;9.88;5.95;;;6.40;28.10;;;;;;7368426;19;20078;-62
2022/05/30 02:49:37;;;;;;;8.43;6.18;;;6.50;27.40;;;;;;7367237;19;20598;-61
2022/05/30 02:52:08;;;;;;;6.40;5.13;;;6.50;27.00;;;;;;7364995;19;20031;-61
2022/05/30 02:54:39;;;;;;;6.70;5.35;;;6.40;26.40;;;;;;7368551;19;20015;-61
2022/05/30 02:57:09;;;;;;;7.90;5.88;;;6.40;26.70;;;;;;7388872;19;20010;-62
2022/05/30 02:59:41;;;;;;;11.15;6.32;;;6.40;27.30;;;;;;7364459;19;20409;-61
2022/05/30 03:02:11;;;;;;;8.82;5.97;;;6.40;27.30;;;;;;7363112;19;20015;-61
2022/05/30 03:04:41;;;;;;;8.10;5.80;;;6.40;26.70;;;;;;7366378;19;20655;-61
2022/05/30 03:07:11;;;;;;;9.45;5.72;;;6.40;27.00;;;;;;7367426;19;20465;-61
2022/05/30 03:09:41;;;;;;;12.75;6.25;;;6.40;26.00;;;;;;7365913;19;20015;-60
2022/05/30 03:12:12;;;;;;;8.38;5.70;;;6.40;26.40;;;;;;7367315;19;20470;-61
2022/05/30 03:14:44;;;;;;;7.15;5.63;;;6.40;26.30;;;;;;7389255;19;20015;-60
2022/05/30 03:17:14;;;;;;;7.97;5.70;;;6.40;25.60;;;;;;7367884;19;20010;-61
2022/05/30 03:19:44;;;;;;;9.32;5.70;;;6.40;26.10;;;;;;7366092;19;20078;-60
2022/05/30 03:22:14;;;;;;;9.07;5.82;;;6.40;26.20;;;;;;7363064;19;20082;-60
2022/05/30 03:24:44;;;;;;;8.95;6.78;;;6.50;27.40;;;;;;7367047;19;20029;-61
2022/05/30 03:27:17;;;;;;;10.38;7.07;;;6.80;26.60;;;;;;7366976;19;20010;-61
2022/05/30 03:29:49;;;;;;;8.63;6.32;;;6.90;25.20;;;;;;7387476;19;20418;-61
2022/05/30 03:32:19;;;;;;;10.30;6.45;;;6.90;24.30;;;;;;7360753;19;20020;-61
2022/05/30 03:34:49;;;;;;;8.48;6.32;;;6.90;22.90;;;;;;7366363;19;20089;-62
2022/05/30 03:37:19;;;;;;;9.38;6.40;;;6.90;22.40;;;;;;7366226;19;20026;-61
2022/05/30 03:39:49;;;;;;;8.68;5.88;;;7.00;22.60;;;;;;7366130;19;20033;-61
2022/05/30 03:42:19;;;;;;;7.50;5.68;;;7.00;20.90;;;;;;7361907;19;20019;-61
2022/05/30 03:44:51;;;;;;;8.07;6.05;;;7.30;18.10;;;;;;7387961;19;20084;-61
2022/05/30 03:47:21;;;;;;;6.55;5.55;;;7.20;16.70;;;;;;7366556;19;20013;-61
2022/05/30 03:49:51;;;;;;;6.20;5.38;;;8.00;13.00;;;;;;7364250;19;20452;-61
2022/05/30 03:52:21;;;;;;;5.53;4.57;;;8.90;5.30;;;;;;7361772;19;20018;-62
2022/05/30 03:54:52;;;;;;;5.47;4.60;;;9.50;1.00;;;;;;7367471;19;20002;-61
2022/05/30 03:57:22;;;;;;;7.78;4.32;;;9.10;1.00;;;;;;7365283;19;20029;-61
2022/05/30 03:59:54;;;;;;;5.07;3.92;;;9.80;1.00;;;;;;7386333;19;20014;-62
2022/05/30 04:02:25;;;;;;;5.55;4.25;;;10.20;1.00;;;;;;7360871;19;20051;-62
2022/05/30 04:04:55;;;;;;;7.50;4.65;;;9.80;1.00;;;;;;7365351;19;20021;-61
2022/05/30 04:07:25;;;;;;;5.97;4.10;;;9.00;1.00;;;;;;7366235;19;20006;-61
2022/05/30 04:09:56;;;;;;;6.50;4.03;;;8.70;1.00;;;;;;7363240;19;20010;-61
2022/05/30 04:12:26;;;;;;;4.63;4.05;;;9.00;1.00;;;;;;7360718;19;20018;-62
2022/05/30 04:15:00;;;;;;;4.78;4.18;;;8.50;1.00;;;;;;7387156;19;20088;-62
2022/05/30 04:17:34;;;;;;;7.38;4.65;;;9.00;1.00;;;;;;7364640;19;20014;-62
2022/05/30 04:20:04;;;;;;;7.35;4.43;;;9.50;1.00;;;;;;7363890;19;20010;-61
2022/05/30 04:22:34;;;;;;;7.63;4.57;;;10.70;1.00;;;;;;7361075;19;20081;-61
2022/05/30 04:25:04;;;;;;;5.72;4.25;;;12.30;1.00;;;;;;7366056;19;20064;-62
2022/05/30 04:27:34;;;;;;;5.25;4.10;;;12.70;1.00;;;;;;7364629;19;20006;-61
2022/05/30 04:30:09;;;;;;;6.47;4.00;;;12.80;1.00;;;;;;7384841;19;20090;-61
2022/05/30 04:32:39;;;;;;;6.90;4.22;;;12.90;1.00;;;;;;7360703;19;20013;-61
2022/05/30 04:35:11;;;;;;;5.15;3.95;;;12.80;1.00;;;;;;7364453;19;20017;-60
2022/05/30 04:37:41;;;;;;;4.80;3.63;;;12.60;1.00;;;;;;7364584;19;20523;-61
2022/05/30 04:40:17;;;;;;;6.55;3.67;;;12.60;1.00;;;;;;7364045;19;20010;-62
2022/05/30 04:42:48;;;;;;;4.90;3.75;;;13.80;1.00;;;;;;7359469;19;20011;-61
2022/05/30 04:45:21;;;;;;;5.10;3.60;;;14.30;1.00;;;;;;7364689;19;20081;-63
2022/05/30 04:47:51;;;;;;;5.82;3.72;;;14.70;1.00;;;;;;7386605;19;20346;-61
2022/05/30 04:50:21;;;;;;;5.15;3.30;;;14.50;1.00;;;;;;7362816;19;20172;-62
2022/05/30 04:52:51;;;;;;;6.32;3.90;;;14.40;1.00;;;;;;7359088;19;20031;-62
2022/05/30 04:55:21;;;;;;;4.93;3.75;;;13.90;1.00;;;;;;7365206;19;20501;-61
2022/05/30 04:57:53;;;;;;;4.72;3.08;;;13.90;1.00;;;;;;7363593;19;20469;-61
2022/05/30 05:00:26;;;;;;;5.88;3.60;;;14.40;1.00;;;;;;7364164;19;20015;-62
2022/05/30 05:02:56;;;;;;;5.72;3.67;;;14.70;1.00;;;;;;7381333;19;20007;-62
2022/05/30 05:05:26;;;;;;;5.25;3.60;;;12.50;1.00;;;;;;7363536;19;20067;-61
2022/05/30 05:08:07;;;;;;;6.28;3.50;;;14.30;1.00;;;;;;7364124;19;20050;-63
2022/05/30 05:10:44;;;;;;;4.95;3.35;;;14.70;1.00;;;;;;7364501;19;20016;-62
2022/05/30 05:13:14;;;;;;;7.35;3.58;;;15.20;1.00;;;;;;7360879;19;20096;-61
2022/05/30 05:15:46;;;;;;;6.20;3.80;;;13.60;1.00;;;;;;7364392;19;20011;-62
2022/05/30 05:18:16;;;;;;;4.45;3.70;;;14.50;1.00;;;;;;7358774;19;20015;-62
2022/05/30 05:20:46;;;;;;;4.47;4.05;;;13.50;1.00;;;;;;7385517;19;21643;-60
2022/05/30 05:23:16;;;;;;;3.97;3.60;;;14.20;1.00;;;;;;7366054;19;20402;-62
2022/05/30 05:25:46;;;;;;;5.68;3.92;;;14.30;1.00;;;;;;7368785;19;20014;-61
2022/05/30 05:28:16;;;;;;;4.85;3.88;;;14.20;1.00;;;;;;7368174;19;20021;-62
2022/05/30 05:30:49;;;;;;;4.10;3.70;;;14.00;1.00;;;;;;7369818;19;20508;-61
2022/05/30 05:33:20;;;;;;;4.93;4.43;;;14.30;1.00;;;;;;7367597;19;20371;-61
2022/05/30 05:35:50;;;;;;;5.50;4.22;;;14.60;1.00;;;;;;7389615;19;20014;-61
2022/05/30 05:38:20;;;;;;;5.60;4.40;;;15.50;1.00;;;;;;7366651;19;20006;-62
2022/05/30 05:40:50;;;;;;;5.13;4.30;;;14.70;1.00;;;;;;7369602;19;20939;-62
2022/05/30 05:43:20;;;;;;;5.15;3.95;;;15.30;1.00;;;;;;7367811;19;20074;-63
2022/05/30 05:45:53;;;;;;;5.22;3.80;;;15.20;1.00;;;;;;7368390;19;20017;-62
2022/05/30 05:48:24;;;;;;;7.30;4.30;;;14.30;1.00;;;;;;7366285;19;20457;-61
2022/05/30 05:50:53;;;;;;;6.32;4.65;;;14.50;1.00;;;;;;7389385;19;20017;-61
2022/05/30 05:53:23;;;;;;;5.50;3.80;;;13.90;1.00;;;;;;7366002;19;20028;-62
2022/05/30 05:55:53;;;;;;;8.05;3.85;;;14.00;1.00;;;;;;7370086;19;20011;-62
2022/05/30 05:58:23;;;;;;;6.57;3.88;;;14.40;1.00;;;;;;7365561;19;20023;-62
2022/05/30 06:00:55;;;;;;;7.88;5.53;;;14.10;1.00;;;;;;7367418;19;20007;-62
2022/05/30 06:03:25;;;;;;;4.93;4.15;;;14.90;1.00;;;;;;7365780;19;20015;-62
2022/05/30 06:05:55;;;;;;;5.88;4.40;;;15.40;1.00;;;;;;7389902;19;20022;-62
2022/05/30 06:08:25;;;;;;;5.25;4.43;;;13.60;1.00;;;;;;7366650;19;20125;-62
2022/05/30 06:13:38;;;;;;;7.60;4.47;;;11.90;1.00;;;;;;7365603;19;20503;-61
2022/05/30 06:16:14;;;;;;;5.60;3.88;;;11.90;1.00;;;;;;7368600;19;20471;-62
2022/05/30 06:18:46;;;;;;;6.22;4.20;;;11.60;1.00;;;;;;7364079;19;20174;-62
2022/05/30 06:21:16;;;;;;;7.28;3.95;;;11.60;1.00;;;;;;7366890;19;20012;-63
2022/05/30 06:23:48;;;;;;;6.35;4.35;;;11.60;1.00;;;;;;7386696;19;20015;-61
2022/05/30 06:26:18;;;;;;;5.65;3.90;;;11.90;1.00;;;;;;7368385;19;20041;-62
2022/05/30 06:28:49;;;;;;;5.20;3.85;;;13.10;1.00;;;;;;7366922;19;20062;-62
2022/05/30 06:31:23;;;;;;;7.63;4.18;;;13.60;1.00;;;;;;7366413;19;20021;-61
2022/05/30 06:33:53;;;;;;;5.68;4.30;;;14.30;1.00;;;;;;7364756;19;20014;-62
2022/05/30 06:36:25;;;;;;;8.00;4.35;;;15.00;1.00;;;;;;7369603;19;20019;-62
2022/05/30 06:38:57;;;;;;;5.95;3.85;;;14.20;1.00;;;;;;7384449;19;20086;-62
2022/05/30 06:41:30;;;;;;;5.80;3.92;;;13.90;1.00;;;;;;7364430;19;20477;-62
2022/05/30 06:44:02;;;;;;;6.78;4.25;;;14.00;1.00;;;;;;7364367;19;20436;-59
2022/05/30 06:46:36;;;;;;;6.20;3.65;;;13.30;1.00;;;;;;7368625;19;20017;-62
2022/05/30 06:49:07;;;;;;;6.05;4.13;;;12.20;1.00;;;;;;7365185;19;20060;-62
2022/05/30 06:51:39;;;;;;;5.60;4.25;;;12.40;1.00;;;;;;7367107;19;20082;-63
2022/05/30 06:54:09;;;;;;;6.30;4.00;;;12.80;1.00;;;;;;7384610;19;20023;-61
2022/05/30 06:58:12;;;;;;;5.82;4.28;;;12.50;1.00;;;;;;7368550;19;20032;-62
2022/05/30 06:59:34;;;;;;;6.95;4.78;;;12.70;1.00;;;;;;7364454;19;20007;-62
2022/05/30 07:02:08;;;;;;;5.25;4.00;;;13.00;1.00;;;;;;7362861;19;20003;-61
2022/05/30 07:04:38;;;;;;;5.83;3.97;;;12.60;1.00;;;;;;7367322;19;20014;-61
2022/05/30 07:07:09;;;;;;;5.82;3.85;;;12.70;1.00;;;;;;7369159;19;20251;-61
2022/05/30 07:09:41;;;;;;;4.97;3.95;;;12.70;1.00;;;;;;7366254;19;20024;-61
2022/05/30 07:12:12;;;;;;;8.88;4.00;;;13.10;1.00;;;;;;7370125;19;20021;-61
2022/05/30 07:14:42;;;;;;;5.43;4.05;;;13.20;1.00;;;;;;7388064;19;20031;-61
2022/05/30 07:17:16;;;;;;;5.55;4.45;;;13.40;1.00;;;;;;7366841;19;20017;-62
2022/05/30 07:19:46;;;;;;;4.82;3.58;;;13.20;1.00;;;;;;7365481;19;20014;-62
2022/05/30 07:22:16;;;;;;;6.50;4.32;;;13.50;1.00;;;;;;7363084;19;20046;-60
2022/05/30 07:24:46;;;;;;;6.47;4.25;;;13.50;1.00;;;;;;7367062;19;20018;-61
2022/05/30 07:27:16;;;;;;;5.05;3.63;;;13.80;1.00;;;;;;7368658;19;20081;-63
2022/05/30 07:29:46;;;;;;;6.15;3.97;;;14.10;1.00;;;;;;7386682;19;20010;-62
2022/05/30 07:32:18;;;;;;;5.20;3.80;;;13.50;1.00;;;;;;7361759;19;20015;-62
2022/05/30 07:34:48;;;;;;;4.80;3.97;;;14.30;1.00;;;;;;7366159;19;20089;-62
2022/05/30 07:37:18;;;;;;;5.97;4.15;;;14.70;1.00;;;;;;7366850;19;20502;-63
2022/05/30 07:39:48;;;;;;;4.45;4.00;;;14.40;1.00;;;;;;7365181;19;20010;-62
2022/05/30 07:42:18;;;;;;;11.43;4.57;;;14.00;1.00;;;;;;7360378;19;20010;-62
2022/05/30 07:44:48;;;;;;;5.55;4.15;;;13.50;1.00;;;;;;7386695;19;20014;-62
2022/05/30 07:47:21;;;;;;;4.43;3.80;;;13.80;1.00;;;;;;7366934;19;20375;-62
2022/05/30 07:49:51;;;;;;;6.07;3.92;;;14.00;1.00;;;;;;7366761;19;20495;-61
2022/05/30 07:52:21;;;;;;;6.35;4.07;;;14.10;1.00;;;;;;7358478;19;20470;-62
2022/05/30 07:54:50;;;;;;;6.32;4.32;;;14.30;1.00;;;;;;7365055;19;20017;-62
2022/05/30 07:57:50;;;;;;;6.60;4.00;;;13.90;1.00;;;;;;7366889;19;20343;-61
2022/05/30 08:00:12;;;;;;;4.45;3.53;;;14.10;1.00;;;;;;7381165;19;20098;-63
2022/05/30 08:02:44;;;;;;;8.38;4.65;;;14.60;1.00;;;;;;7380569;19;20021;-62
2022/05/30 08:05:16;;;;;;;;;;;14.50;1.00;;;;;;7365452;19;20010;-61
2022/05/30 08:07:47;;;;;;;6.82;4.32;;;14.20;1.00;;;;;;7365706;19;19911;-61
2022/05/30 08:10:19;;;;;;;6.18;3.85;;;14.20;1.00;;;;;;7366390;19;20006;-62
2022/05/30 08:12:49;;;;;;;6.00;3.90;;;14.70;1.00;;;;;;7358782;19;20073;-61
2022/05/30 08:15:19;;;;;;;6.68;3.17;;;14.90;1.00;;;;;;7364647;19;20421;-61
2022/05/30 08:17:56;;;;;;;6.50;4.03;;;14.10;1.00;;;;;;7386753;19;20074;-62
2022/05/30 08:20:27;;;;;;;5.13;3.88;;;14.50;1.00;;;;;;7366618;19;20007;-61
2022/05/30 08:22:58;;;;;;;6.70;3.40;;;14.70;1.00;;;;;;7359768;19;20015;-62
2022/05/30 08:25:28;;;;;;;5.75;3.95;;;13.50;1.00;;;;;;7364719;19;20015;-61
2022/05/30 08:27:58;;;;;;;5.15;3.60;;;13.40;1.00;;;;;;7363972;19;20007;-62
2022/05/30 08:30:29;;;;;;;4.20;3.45;;;13.80;1.00;;;;;;7365862;19;20070;-62
2022/05/30 08:33:01;;;;;;;5.47;3.40;;;14.20;1.00;;;;;;7382818;19;20058;-61
2022/05/30 08:35:31;;;;;;;6.03;3.40;;;14.60;1.00;;;;;;7364174;19;20010;-61
2022/05/30 08:38:01;;;;;;;8.50;3.22;;;14.80;1.00;;;;;;7363585;19;20115;-62
2022/05/30 08:43:22;;;;;;;4.82;2.95;;;15.10;1.00;;;;;;7361738;19;20011;-63
2022/05/30 08:45:55;;;;;;;4.95;2.53;;;15.90;1.00;;;;;;7363293;19;20074;-62
2022/05/30 08:48:35;;;;;;;5.82;2.97;;;16.10;1.00;;;;;;7364661;19;20015;-62
2022/05/30 08:51:14;;;;;;;3.88;2.60;;;16.00;1.00;;;;;;7387032;19;20538;-61
2022/05/30 08:54:00;;;;;;;5.88;3.00;;;15.40;1.00;;;;;;7360192;19;20011;-61
2022/05/30 08:56:34;;;;;;;8.02;2.90;;;14.90;1.00;;;;;;7367039;19;20018;-62
2022/05/30 08:59:37;;;;;;;3.55;2.45;;;14.60;1.00;;;;;;7369746;19;20013;-61
2022/05/30 09:02:15;;;;;;;10.77;2.83;;;14.20;1.00;;;;;;7363399;19;20567;-61
2022/05/30 09:04:53;;;;;;;5.07;2.55;;;15.60;1.00;;;;;;7370155;19;20077;-62
2022/05/30 09:07:27;;;;;;;5.53;2.72;;;15.80;1.00;;;;;;7371197;19;20902;-60
2022/05/30 09:10:05;;;;;;;6.95;2.40;;;15.30;1.00;;;;;;7370535;19;20070;-61
2022/05/30 09:12:39;;;;;;;4.35;2.10;;;15.50;1.00;;;;;;7361665;19;20017;-61
2022/05/30 09:15:13;;;;;;;5.80;2.20;;;15.10;1.00;;;;;;7390981;19;20015;-61
2022/05/30 09:17:48;;;;;;;4.43;2.60;;;15.70;1.00;;;;;;7371685;19;20017;-60
2022/05/30 09:20:23;;;;;;;4.05;2.28;;;15.60;1.00;;;;;;7370702;19;20244;-62
2022/05/30 09:22:54;;;;;;;4.22;1.77;;;15.50;1.00;;;;;;7362365;19;20022;-61
2022/05/30 09:28:09;;;;;;;4.80;1.73;;;15.70;1.00;;;;;;7372890;19;20547;-62
2022/05/30 09:30:48;;;;;;;3.47;1.77;;;16.50;1.00;;;;;;7368917;19;20050;-62
2022/05/30 09:33:29;;;;;;;4.85;2.53;;;16.60;1.00;;;;;;7365235;19;20474;-61
2022/05/30 09:36:18;;;;;;;5.03;2.28;;;16.50;1.00;;;;;;7390675;19;20091;-62
2022/05/30 09:38:51;;;;;;;4.75;2.38;;;16.60;1.00;;;;;;7369122;19;20481;-62
2022/05/30 09:41:24;;;;;;;3.67;2.00;;;16.70;1.00;;;;;;7367384;19;20447;-61
2022/05/30 09:43:56;;;;;;;4.18;1.50;;;16.10;1.00;;;;;;7365494;19;20020;-62
2022/05/30 09:46:32;;;;;;;4.15;1.70;;;16.40;1.00;;;;;;7370553;19;20010;-61
2022/05/30 09:49:09;;;;;;;3.58;1.75;;;17.00;1.00;;;;;;7370410;19;20078;-62
2022/05/30 09:51:45;;;;;;;2.15;1.58;;;17.50;1.00;;;;;;7366536;19;20045;-62
2022/05/30 09:54:33;;;;;;;2.92;1.90;;;17.40;1.00;;;;;;7366536;19;20006;-62
2022/05/30 09:57:09;;;;;;;5.00;2.10;;;16.90;1.00;;;;;;7392161;19;20023;-62
2022/05/30 09:59:43;;;;;;;3.22;1.23;;;16.90;1.00;;;;;;7366181;19;20170;-63
2022/05/30 10:02:25;;;;;;;4.35;2.17;;;17.60;1.00;;;;;;7359317;19;20014;-62
2022/05/30 10:05:01;;;;;;;4.63;2.40;;;17.90;1.00;;;;;;7367102;19;20006;-62
2022/05/30 10:07:51;;;;;;;5.95;2.50;;;17.30;1.00;;;;;;7369066;19;20553;-62
2022/05/30 10:10:26;;;;;;;6.18;2.17;;;18.00;1.00;;;;;;7369598;19;20035;-63
2022/05/30 10:12:58;;;;;;;2.58;1.90;;;18.20;1.00;;;;;;7362434;19;20006;-63
2022/05/30 10:15:31;;;;;;;2.45;1.58;;;17.70;1.00;;;;;;7367144;19;20510;-63
2022/05/30 10:18:23;;;;;;;2.28;1.50;;;17.80;1.00;;;;;;7392391;19;20013;-62
2022/05/30 10:21:07;;;;;;;3.72;1.20;;;18.10;1.00;;;;;;7365385;19;20541;-61
2022/05/30 10:29:47;;;;;;;2.88;1.73;;;16.50;1.00;;;;;;7369094;19;20031;-62
2022/05/30 10:32:22;;;;;;;1.85;1.33;;;16.50;1.00;;;;;;7359646;19;20010;-60
2022/05/30 10:35:16;;;;;;;4.85;1.77;;;16.80;1.00;;;;;;7367921;19;20462;-61
2022/05/30 10:38:18;;;;;;;3.80;1.52;;;17.10;1.00;;;;;;7369291;19;20078;-62
2022/05/30 10:41:10;;;;;;;5.00;1.42;;;17.50;1.00;;;;;;7365680;19;20510;-61
2022/05/30 10:43:50;;;;;;;3.45;2.28;;;17.10;1.00;;;;;;7364378;19;20010;-62
2022/05/30 10:46:25;;;;;;;3.88;1.73;;;16.90;1.00;;;;;;7369840;19;20015;-62
2022/05/30 10:49:01;;;;;;;2.88;1.60;;;17.40;1.00;;;;;;7368544;19;20011;-61
2022/05/30 10:51:54;;;;;;;2.72;1.40;;;17.10;1.00;;;;;;7365539;19;20812;-60
2022/05/30 10:54:29;;;;;;;2.58;1.42;;;17.20;1.00;;;;;;7367427;19;20011;-62
2022/05/30 10:57:16;;;;;;;2.40;1.15;;;18.00;1.00;;;;;;7389989;19;20353;-61
2022/05/30 10:59:50;;;;;;;1.73;1.10;;;18.30;1.00;;;;;;7367312;19;20074;-61
2022/05/30 11:02:29;;;;;;;1.20;0.90;;;18.10;1.00;;;;;;7358423;19;20013;-62
2022/05/30 11:05:08;;;;;;;1.73;0.80;;;18.30;1.00;;;;;;7366548;19;20587;-63
2022/05/30 11:07:49;;;;;;;2.10;1.00;;;18.50;1.00;;;;;;7368345;19;20006;-61
2022/05/30 11:10:38;;;;;;;3.17;1.20;;;18.80;1.00;;;;;;7367979;19;20026;-62
2022/05/30 11:13:19;;;;;;;2.40;1.40;;;18.50;1.00;;;;;;7361704;19;20032;-63
2022/05/30 11:15:53;;;;;;;4.40;1.05;;;19.10;1.00;;;;;;7366948;19;20405;-63
2022/05/30 11:18:30;;;;;;;2.10;0.75;;;19.60;1.00;;;;;;7365981;19;20010;-62
2022/05/30 11:21:07;;;;;;;3.40;1.50;;;18.70;1.00;;;;;;7383409;19;20077;-62
2022/05/30 11:23:37;;;;;;;3.35;1.55;;;18.50;1.00;;;;;;7361104;19;20021;-63
2022/05/30 11:26:28;;;;;;;3.85;1.77;;;18.30;1.00;;;;;;7365770;19;20106;-63
2022/05/30 11:29:26;;;;;;;2.10;1.30;;;18.10;1.00;;;;;;7364276;19;20006;-62
2022/05/30 11:32:03;;;;;;;2.97;1.50;;;18.30;1.00;;;;;;7361022;19;20096;-62
2022/05/30 11:34:55;;;;;;;5.13;1.45;;;18.60;1.00;;;;;;7365570;19;20018;-63
2022/05/30 11:37:46;;;;;;;3.05;1.50;;;18.20;1.00;;;;;;7366583;19;20027;-61
2022/05/30 11:40:25;;;;;;;2.03;1.70;;;17.60;1.00;;;;;;7363949;19;20037;-63
2022/05/30 11:43:09;;;;;;;3.03;1.65;;;17.40;1.00;;;;;;7358870;19;20436;-63
2022/05/30 11:45:57;;;;;;;3.67;1.55;;;17.10;1.00;;;;;;7366238;19;20010;-62
2022/05/30 11:48:38;;;;;;;3.08;1.27;;;17.40;1.00;;;;;;7367096;19;20505;-62
2022/05/30 11:51:19;;;;;;;3.55;1.70;;;17.70;1.00;;;;;;7385370;19;20084;-62
2022/05/30 11:54:10;;;;;;;3.13;1.30;;;17.60;1.00;;;;;;7361240;19;20014;-61
2022/05/30 11:56:50;;;;;;;5.45;1.30;;;17.80;1.00;;;;;;7365835;19;19999;-63
2022/05/30 11:59:58;;;;;;;2.22;1.10;;;18.50;1.00;;;;;;7364998;19;20767;-63
2022/05/30 12:02:50;;;;;;;3.30;1.25;;;18.70;1.00;;;;;;7358767;19;20011;-62
2022/05/30 12:05:50;;;;;;;1.52;1.33;;;18.40;1.00;;;;;;7362732;19;20006;-63
2022/05/30 12:08:36;;;;;;;2.42;1.52;;;18.70;1.00;;;;;;7365858;19;20006;-62
2022/05/30 12:11:41;;;;;;;2.80;1.38;;;18.80;1.00;;;;;;7363632;19;20093;-62
2022/05/30 12:14:38;;;;;;;1.90;1.27;;;18.90;1.00;;;;;;7359291;19;20065;-65
2022/05/30 12:23:52;;;;;;;3.30;1.48;;;18.90;1.00;;;;;;7359192;19;20010;-64
2022/05/30 12:26:53;;;;;;;1.98;1.10;;;19.30;1.00;;;;;;7365538;19;20388;-62
2022/05/30 12:29:34;;;;;;;3.05;1.30;;;19.60;1.00;;;;;;7364312;19;20010;-63
2022/05/30 12:32:47;;;;;;;3.13;1.45;;;19.40;1.00;;;;;;7356468;19;20029;-62
2022/05/30 12:35:35;;;;;;;3.60;1.52;;;19.10;1.00;;;;;;7362603;19;20398;-63
2022/05/30 12:38:18;;;;;;;3.30;1.30;;;18.60;1.00;;;;;;7366090;19;20002;-62
2022/05/30 12:41:13;;;;;;;2.75;1.20;;;19.00;1.00;;;;;;7364104;19;20018;-63
2022/05/30 12:43:46;;;;;;;3.03;1.40;;;19.20;1.00;;;;;;7359699;19;20016;-62
2022/05/30 12:46:28;;;;;;;1.67;1.17;;;19.20;1.00;;;;;;7365999;19;20019;-63
2022/05/30 12:49:18;;;;;;;1.75;1.08;;;19.00;1.00;;;;;;7364105;19;20066;-63
2022/05/30 12:52:17;;;;;;;3.75;1.20;;;19.00;1.00;;;;;;7362689;19;20011;-64
2022/05/30 12:55:03;;;;;;;2.63;1.40;;;19.00;1.00;;;;;;7361707;19;20007;-63
2022/05/30 12:57:43;;;;;;;1.63;1.20;;;19.20;1.00;;;;;;7365873;19;20039;-63
2022/05/30 13:00:33;;;;;;;1.90;1.20;;;19.10;1.00;;;;;;7364040;19;20014;-64
2022/05/30 13:03:34;;;;;;;2.30;1.15;;;19.30;1.00;;;;;;7378724;19;20022;-67
2022/05/30 13:06:12;;;;;;;1.10;0.90;;;19.20;1.00;;;;;;7362347;19;20330;-63
2022/05/30 13:09:04;;;;;;;3.53;1.30;;;18.70;1.00;;;;;;7364469;19;20018;-63
2022/05/30 13:11:57;;;;;;;14.65;1.30;;;18.60;1.00;;;;;;7363828;19;20010;-62
2022/05/30 13:14:59;;;;;;;1.50;1.10;;;18.60;1.00;;;;;;7359493;19;20457;-64
2022/05/30 13:17:46;;;;;;;5.72;1.30;;;19.30;1.00;;;;;;7362060;19;20018;-64
2022/05/30 13:20:19;;;;;;;3.83;1.50;;;20.10;1.00;;;;;;7362255;19;20006;-63
2022/05/30 13:22:55;;;;;;;1.65;1.30;;;19.70;1.00;;;;;;7356512;19;20086;-63
2022/05/30 13:25:31;;;;;;;5.05;1.92;;;19.40;1.00;;;;;;7363939;19;20014;-62
2022/05/30 13:28:10;;;;;;;3.70;1.20;;;18.80;1.00;;;;;;7363161;19;20013;-63
2022/05/30 13:30:41;;;;;;;3.70;1.63;;;18.70;1.00;;;;;;7363670;19;20077;-62
2022/05/30 13:33:13;;;;;;;2.42;1.20;;;18.10;1.00;;;;;;7362766;19;20010;-63
2022/05/30 13:35:45;;;;;;;2.50;1.45;;;18.40;1.00;;;;;;7381233;19;20088;-62
2022/05/30 13:38:18;;;;;;;1.65;1.30;;;18.40;1.00;;;;;;7361980;19;20011;-63
2022/05/30 13:40:53;;;;;;;2.58;1.50;;;18.40;1.00;;;;;;7364786;19;20015;-63
2022/05/30 13:43:33;;;;;;;1.65;1.27;;;18.60;1.00;;;;;;7356804;19;20010;-63
2022/05/30 13:46:27;;;;;;;2.53;1.58;;;19.00;1.00;;;;;;7368815;19;20021;-63
2022/05/30 13:48:57;;;;;;;2.47;1.08;;;19.00;1.00;;;;;;7367098;19;20049;-63
2022/05/30 13:51:33;;;;;;;1.55;1.45;;;18.60;1.00;;;;;;7369762;19;20006;-64
2022/05/30 13:54:06;;;;;;;4.05;1.20;;;19.10;1.00;;;;;;7383841;19;20032;-63
2022/05/30 13:56:38;;;;;;;1.67;1.20;;;19.40;1.00;;;;;;7367278;19;20040;-62
2022/05/30 13:59:23;;;;;;;1.50;1.27;;;19.30;1.00;;;;;;7369022;19;20815;-62
2022/05/30 14:01:58;;;;;;;;;;;20.00;1.00;;;;;;7367288;19;20109;-63
2022/05/30 14:04:37;;;;;;;1.45;1.02;;;20.50;1.00;;;;;;7366407;19;19927;-62
2022/05/30 14:07:20;;;;;;;3.17;1.27;;;20.20;1.00;;;;;;7369330;19;20015;-62
2022/05/30 14:09:56;;;;;;;2.88;1.30;;;19.20;1.00;;;;;;7369640;19;20024;-63